createdAt,value
2023-05-17T00:01:47.335Z,7.80
2023-05-17T00:04:14.318Z,8.10
2023-05-17T00:06:41.280Z,7.90
2023-05-17T00:09:08.384Z,7.90
2023-05-17T00:11:35.656Z,8.00
2023-05-17T00:14:02.620Z,8.10
2023-05-17T00:16:29.476Z,8.00
2023-05-17T00:18:56.505Z,8.10
2023-05-17T00:21:23.708Z,8.20
2023-05-17T00:23:50.888Z,8.20
2023-05-17T00:26:17.992Z,8.20
2023-05-17T00:28:44.814Z,8.30
2023-05-17T00:31:11.594Z,8.30
2023-05-17T00:33:38.498Z,8.20
2023-05-17T00:36:05.791Z,8.20
2023-05-17T00:38:33.179Z,8.20
2023-05-17T00:41:00.402Z,8.20
2023-05-17T00:43:27.677Z,8.10
2023-05-17T00:45:54.527Z,8.20
2023-05-17T00:48:21.519Z,8.10
2023-05-17T00:50:49.167Z,8.10
2023-05-17T00:53:16.457Z,8.20
2023-05-17T00:55:44.718Z,8.20
2023-05-17T00:58:12.978Z,8.20
2023-05-17T01:00:40.389Z,8.20
2023-05-17T01:03:10.100Z,8.10
2023-05-17T01:05:37.127Z,8.20
2023-05-17T01:08:04.111Z,8.10
2023-05-17T01:10:42.583Z,8.00
2023-05-17T01:13:15.930Z,8.10
2023-05-17T01:15:49.128Z,7.90
2023-05-17T01:18:55.721Z,7.90
2023-05-17T01:22:12.642Z,7.80
2023-05-17T01:24:51.407Z,7.80
2023-05-17T01:27:20.822Z,7.80
2023-05-17T01:29:49.576Z,7.80
2023-05-17T01:32:17.368Z,7.70
2023-05-17T01:34:44.234Z,7.70
2023-05-17T01:37:11.239Z,7.60
2023-05-17T01:39:38.426Z,7.80
2023-05-17T01:42:19.832Z,7.70
2023-05-17T01:45:08.586Z,7.70
2023-05-17T01:47:35.574Z,7.80
2023-05-17T01:50:05.196Z,7.80
2023-05-17T01:52:35.453Z,7.90
2023-05-17T01:55:14.813Z,8.00
2023-05-17T01:57:44.569Z,8.00
2023-05-17T02:00:12.675Z,8.10
2023-05-17T02:02:39.895Z,8.10
2023-05-17T02:05:07.405Z,8.10
2023-05-17T02:07:34.350Z,8.10
2023-05-17T02:10:01.232Z,8.10
2023-05-17T02:12:28.422Z,8.10
2023-05-17T02:14:55.432Z,8.00
2023-05-17T02:17:22.452Z,8.00
2023-05-17T02:19:49.459Z,7.90
2023-05-17T02:22:16.526Z,7.90
2023-05-17T02:24:43.607Z,7.80
2023-05-17T02:27:10.663Z,7.80
2023-05-17T02:29:38.760Z,7.80
2023-05-17T02:32:06.331Z,7.80
2023-05-17T02:34:33.244Z,7.80
2023-05-17T02:37:00.152Z,7.80
2023-05-17T02:39:27.082Z,7.80
2023-05-17T02:41:53.963Z,7.80
2023-05-17T02:44:20.876Z,7.90
2023-05-17T02:46:47.794Z,7.90
2023-05-17T02:49:14.895Z,7.80
2023-05-17T02:51:41.772Z,7.80
2023-05-17T02:54:08.692Z,7.80
2023-05-17T02:56:36.030Z,7.70
2023-05-17T02:59:02.952Z,7.60
2023-05-17T03:01:29.907Z,7.60
2023-05-17T03:03:56.984Z,7.50
2023-05-17T03:06:23.963Z,7.50
2023-05-17T03:08:50.910Z,7.50
2023-05-17T03:11:17.841Z,7.40
2023-05-17T03:13:46.487Z,7.40
2023-05-17T03:16:13.503Z,7.40
2023-05-17T03:18:40.673Z,7.30
2023-05-17T03:21:07.868Z,7.20
2023-05-17T03:23:38.489Z,7.20
2023-05-17T03:26:05.363Z,7.10
2023-05-17T03:28:32.334Z,7.00
2023-05-17T03:30:59.386Z,7.00
2023-05-17T03:33:26.777Z,7.00
2023-05-17T03:35:53.924Z,6.90
2023-05-17T03:38:20.880Z,6.90
2023-05-17T03:40:47.835Z,6.90
2023-05-17T03:43:14.628Z,6.90
2023-05-17T03:45:41.426Z,6.90
2023-05-17T03:48:08.420Z,7.00
2023-05-17T03:50:35.347Z,7.00
2023-05-17T03:53:02.324Z,7.00
2023-05-17T03:55:29.572Z,7.00
2023-05-17T03:57:56.526Z,7.00
2023-05-17T04:00:24.157Z,7.20
2023-05-17T04:02:52.280Z,7.20
2023-05-17T04:05:20.079Z,7.10
2023-05-17T04:07:47.033Z,7.10
2023-05-17T04:10:13.819Z,7.20
2023-05-17T04:12:40.715Z,7.30
2023-05-17T04:15:08.257Z,7.30
2023-05-17T04:17:35.129Z,7.30
2023-05-17T04:20:02.494Z,7.30
2023-05-17T04:22:29.430Z,7.50
2023-05-17T04:24:56.262Z,7.60
2023-05-17T04:27:23.234Z,7.70
2023-05-17T04:29:50.271Z,8.00
2023-05-17T04:32:18.937Z,8.20
2023-05-17T04:34:45.783Z,8.60
2023-05-17T04:37:12.910Z,8.90
2023-05-17T04:39:40.107Z,9.30
2023-05-17T04:42:06.966Z,9.70
2023-05-17T04:44:33.755Z,10.10
2023-05-17T04:47:00.562Z,10.40
2023-05-17T04:49:27.362Z,10.40
2023-05-17T04:51:54.201Z,10.80
2023-05-17T04:54:21.039Z,11.00
2023-05-17T04:56:48.022Z,11.10
2023-05-17T04:59:14.806Z,11.10
2023-05-17T05:01:41.736Z,10.90
2023-05-17T05:04:08.778Z,10.70
2023-05-17T05:06:35.885Z,10.60
2023-05-17T05:09:03.006Z,10.70
2023-05-17T05:11:30.041Z,10.80
2023-05-17T05:13:56.870Z,10.70
2023-05-17T05:16:24.904Z,10.70
2023-05-17T05:18:52.007Z,10.90
2023-05-17T05:21:19.008Z,10.90
2023-05-17T05:23:45.775Z,11.00
2023-05-17T05:26:12.659Z,11.20
2023-05-17T05:28:39.561Z,11.30
2023-05-17T05:31:06.330Z,11.70
2023-05-17T05:33:33.286Z,12.00
2023-05-17T05:36:00.134Z,12.00
2023-05-17T05:38:26.971Z,12.10
2023-05-17T05:40:53.765Z,12.30
2023-05-17T05:43:20.854Z,12.10
2023-05-17T05:45:47.813Z,12.20
2023-05-17T05:48:14.935Z,12.30
2023-05-17T05:50:44.287Z,12.40
2023-05-17T05:53:18.612Z,12.70
2023-05-17T05:55:46.591Z,12.60
2023-05-17T05:58:13.482Z,12.40
2023-05-17T06:00:40.368Z,12.50
2023-05-17T06:03:07.692Z,12.70
2023-05-17T06:05:34.655Z,12.80
2023-05-17T06:08:01.552Z,13.00
2023-05-17T06:10:28.944Z,12.30
2023-05-17T06:12:56.206Z,11.80
2023-05-17T06:15:23.168Z,11.70
2023-05-17T06:17:50.174Z,11.90
2023-05-17T06:20:17.206Z,12.10
2023-05-17T06:22:44.648Z,12.10
2023-05-17T06:25:11.561Z,12.10
2023-05-17T06:27:38.422Z,11.90
2023-05-17T06:30:07.409Z,11.80
2023-05-17T06:32:35.003Z,12.20
2023-05-17T06:35:02.033Z,12.80
2023-05-17T06:37:29.137Z,13.40
2023-05-17T06:40:15.012Z,13.30
2023-05-17T06:42:43.589Z,13.10
2023-05-17T06:45:13.826Z,12.60
2023-05-17T06:47:41.711Z,12.90
2023-05-17T06:50:09.398Z,13.20
2023-05-17T06:52:36.619Z,13.90
2023-05-17T06:55:03.934Z,14.30
2023-05-17T06:57:30.931Z,14.30
2023-05-17T06:59:57.861Z,14.10
2023-05-17T07:02:25.064Z,14.00
2023-05-17T07:04:52.093Z,14.50
2023-05-17T07:07:19.366Z,14.70
2023-05-17T07:09:48.817Z,15.00
2023-05-17T07:12:16.104Z,15.30
2023-05-17T07:14:43.056Z,15.70
2023-05-17T07:17:11.715Z,16.00
2023-05-17T07:19:38.812Z,15.80
2023-05-17T07:22:05.919Z,15.80
2023-05-17T07:24:32.703Z,16.30
2023-05-17T07:26:59.802Z,16.50
2023-05-17T07:29:26.820Z,16.50
2023-05-17T07:31:53.712Z,16.40
2023-05-17T07:34:20.564Z,16.30
2023-05-17T07:36:47.910Z,16.60
2023-05-17T07:39:14.934Z,16.80
2023-05-17T07:41:41.776Z,16.90
2023-05-17T07:44:08.677Z,15.90
2023-05-17T07:46:36.663Z,15.20
2023-05-17T07:49:03.732Z,15.30
2023-05-17T07:51:31.695Z,15.30
2023-05-17T07:53:58.866Z,15.80
2023-05-17T07:56:25.991Z,16.20
2023-05-17T07:58:52.836Z,15.70
2023-05-17T08:01:20.228Z,15.60
2023-05-17T08:03:50.006Z,15.30
2023-05-17T08:06:17.926Z,14.90
2023-05-17T08:08:45.494Z,14.20
2023-05-17T08:11:13.761Z,13.80
2023-05-17T08:13:41.251Z,13.30
2023-05-17T08:16:14.313Z,13.40
2023-05-17T08:18:43.797Z,13.60
2023-05-17T08:21:11.454Z,13.50
2023-05-17T08:23:38.901Z,13.30
2023-05-17T08:26:05.718Z,13.00
2023-05-17T08:28:32.581Z,12.90
2023-05-17T08:30:59.971Z,12.90
2023-05-17T08:33:27.550Z,12.70
2023-05-17T08:35:55.706Z,12.90
2023-05-17T08:38:22.707Z,13.10
2023-05-17T08:40:57.002Z,13.40
2023-05-17T08:43:26.802Z,13.60
2023-05-17T08:45:57.799Z,13.60
2023-05-17T08:48:31.313Z,13.50
2023-05-17T08:51:00.098Z,13.70
2023-05-17T08:53:27.429Z,13.90
2023-05-17T08:56:00.695Z,13.80
2023-05-17T08:58:38.465Z,13.50
2023-05-17T09:01:19.995Z,13.40
2023-05-17T09:03:51.645Z,13.00
2023-05-17T09:06:21.717Z,13.00
2023-05-17T09:08:53.110Z,13.00
2023-05-17T09:11:28.865Z,13.90
2023-05-17T09:14:05.008Z,15.00
2023-05-17T09:16:35.124Z,15.80
2023-05-17T09:19:04.035Z,16.40
2023-05-17T09:21:32.299Z,16.70
2023-05-17T09:24:07.431Z,16.30
2023-05-17T09:26:43.131Z,16.00
2023-05-17T09:29:15.076Z,15.20
2023-05-17T09:31:43.052Z,14.60
2023-05-17T09:34:10.907Z,14.20
2023-05-17T09:36:38.835Z,14.10
2023-05-17T09:39:08.054Z,13.90
2023-05-17T09:41:57.208Z,13.40
2023-05-17T09:44:25.506Z,13.20
2023-05-17T09:46:52.907Z,14.00
2023-05-17T09:49:21.214Z,15.10
2023-05-17T09:51:51.694Z,15.60
2023-05-17T09:54:19.229Z,15.10
2023-05-17T09:56:54.866Z,14.70
2023-05-17T09:59:23.314Z,14.30
2023-05-17T10:01:50.997Z,13.80
2023-05-17T10:04:23.216Z,13.40
2023-05-17T10:06:52.653Z,13.20
2023-05-17T10:09:23.006Z,13.00
2023-05-17T10:11:53.336Z,13.00
2023-05-17T10:14:32.706Z,13.10
2023-05-17T10:17:03.014Z,13.80
2023-05-17T10:19:30.785Z,14.50
2023-05-17T10:22:08.306Z,14.40
2023-05-17T10:24:38.656Z,14.70
2023-05-17T10:27:10.188Z,15.30
2023-05-17T10:29:39.268Z,15.80
2023-05-17T10:32:10.911Z,15.70
2023-05-17T10:34:39.577Z,14.90
2023-05-17T10:37:07.816Z,14.30
2023-05-17T10:39:38.806Z,13.90
2023-05-17T10:42:14.712Z,13.90
2023-05-17T10:44:42.973Z,13.70
2023-05-17T10:47:12.140Z,13.50
2023-05-17T10:49:41.512Z,13.50
2023-05-17T10:52:20.891Z,13.30
2023-05-17T10:54:50.442Z,13.50
2023-05-17T11:00:09.200Z,13.40
2023-05-17T11:02:41.006Z,13.30
2023-05-17T11:05:22.587Z,13.20
2023-05-17T11:07:49.744Z,13.30
2023-05-17T11:10:18.157Z,13.70
2023-05-17T11:12:48.203Z,14.60
2023-05-17T11:15:16.983Z,15.50
2023-05-17T11:17:44.401Z,16.00
2023-05-17T11:20:32.304Z,16.40
2023-05-17T11:23:05.437Z,16.20
2023-05-17T11:25:38.085Z,16.40
2023-05-17T11:28:10.302Z,16.40
2023-05-17T11:30:42.605Z,16.80
2023-05-17T11:33:20.942Z,16.80
2023-05-17T11:35:55.041Z,16.60
2023-05-17T11:38:24.584Z,15.80
2023-05-17T11:40:55.737Z,15.40
2023-05-17T11:43:30.819Z,15.10
2023-05-17T11:46:01.472Z,15.00
2023-05-17T11:48:30.734Z,14.70
2023-05-17T11:51:00.638Z,14.20
2023-05-17T11:53:30.961Z,13.90
2023-05-17T11:56:02.300Z,13.60
2023-05-17T11:58:29.737Z,13.50
2023-05-17T12:00:59.042Z,13.30
2023-05-17T12:03:27.795Z,13.50
2023-05-17T12:06:15.732Z,14.30
2023-05-17T12:08:47.023Z,15.20
2023-05-17T12:11:18.748Z,15.90
2023-05-17T12:13:49.006Z,15.60
2023-05-17T12:16:18.419Z,15.00
2023-05-17T12:18:49.757Z,14.70
2023-05-17T12:21:19.225Z,14.60
2023-05-17T12:23:50.271Z,14.50
2023-05-17T12:26:20.419Z,14.50
2023-05-17T12:28:58.665Z,14.40
2023-05-17T12:31:31.120Z,14.40
2023-05-17T12:33:59.461Z,14.40
2023-05-17T12:36:29.238Z,14.80
2023-05-17T12:38:56.882Z,15.50
2023-05-17T12:41:26.601Z,15.90
2023-05-17T12:44:06.279Z,15.60
2023-05-17T12:46:41.028Z,15.30
2023-05-17T12:49:09.792Z,14.90
2023-05-17T12:51:46.469Z,14.80
2023-05-17T12:54:27.964Z,14.80
2023-05-17T12:56:55.543Z,14.60
2023-05-17T12:59:25.611Z,14.70
2023-05-17T13:01:57.562Z,15.20
2023-05-17T13:04:32.790Z,15.80
2023-05-17T13:07:02.529Z,15.80
2023-05-17T13:09:31.496Z,15.50
2023-05-17T13:12:06.167Z,15.50
2023-05-17T13:14:38.366Z,15.70
2023-05-17T13:17:15.653Z,15.90
2023-05-17T13:19:43.049Z,15.70
2023-05-17T13:22:10.911Z,15.30
2023-05-17T13:24:39.718Z,14.90
2023-05-17T13:27:08.361Z,14.60
2023-05-17T13:29:40.010Z,14.50
2023-05-17T13:32:09.378Z,14.40
2023-05-17T13:34:36.991Z,14.20
2023-05-17T13:37:05.625Z,14.20
2023-05-17T13:39:33.911Z,14.00
2023-05-17T13:42:00.971Z,13.80
2023-05-17T13:44:28.031Z,13.80
2023-05-17T13:46:55.034Z,14.00
2023-05-17T13:49:22.037Z,14.00
2023-05-17T13:51:49.453Z,14.00
2023-05-17T13:54:16.785Z,14.00
2023-05-17T13:56:43.836Z,14.10
2023-05-17T13:59:10.760Z,14.30
2023-05-17T14:01:37.914Z,14.60
2023-05-17T14:04:05.547Z,14.70
2023-05-17T14:06:32.910Z,14.80
2023-05-17T14:09:00.936Z,14.80
2023-05-17T14:11:28.210Z,14.70
2023-05-17T14:13:56.205Z,14.80
2023-05-17T14:16:23.585Z,14.60
2023-05-17T14:18:51.071Z,14.30
2023-05-17T14:21:18.458Z,14.20
2023-05-17T14:23:45.630Z,14.20
2023-05-17T14:26:12.541Z,14.30
2023-05-17T14:28:39.729Z,14.20
2023-05-17T14:31:07.334Z,14.10
2023-05-17T14:33:35.064Z,13.80
2023-05-17T14:36:03.870Z,13.70
2023-05-17T14:38:30.870Z,13.50
2023-05-17T14:40:59.192Z,13.60
2023-05-17T14:43:26.379Z,13.60
2023-05-17T14:45:53.244Z,13.80
2023-05-17T14:48:20.537Z,14.10
2023-05-17T14:50:47.458Z,14.20
2023-05-17T14:53:14.411Z,14.00
2023-05-17T14:55:41.824Z,13.90
2023-05-17T14:58:09.307Z,13.70
2023-05-17T15:00:36.147Z,13.50
2023-05-17T15:03:03.250Z,13.40
2023-05-17T15:05:30.504Z,13.40
2023-05-17T15:07:57.753Z,13.30
2023-05-17T15:10:24.847Z,13.30
2023-05-17T15:12:52.629Z,13.60
2023-05-17T15:15:22.402Z,13.70
2023-05-17T15:17:49.927Z,13.70
2023-05-17T15:20:18.471Z,13.50
2023-05-17T15:22:45.460Z,13.40
2023-05-17T15:25:12.386Z,13.20
2023-05-17T15:27:39.225Z,13.00
2023-05-17T15:30:07.317Z,12.90
2023-05-17T15:32:34.284Z,12.70
2023-05-17T15:35:01.427Z,12.60
2023-05-17T15:37:28.767Z,12.70
2023-05-17T15:39:55.556Z,12.70
2023-05-17T15:42:22.361Z,12.70
2023-05-17T15:44:49.367Z,12.70
2023-05-17T15:47:16.598Z,12.70
2023-05-17T15:49:43.790Z,12.70
2023-05-17T15:52:12.718Z,12.60
2023-05-17T15:54:39.777Z,12.50
2023-05-17T15:57:06.694Z,12.40
2023-05-17T15:59:33.854Z,12.40
2023-05-17T16:02:00.861Z,12.40
2023-05-17T16:04:27.798Z,12.40
2023-05-17T16:06:54.685Z,12.40
2023-05-17T16:09:21.639Z,12.40
2023-05-17T16:11:48.533Z,12.40
2023-05-17T16:14:15.747Z,12.50
2023-05-17T16:16:44.531Z,12.60
2023-05-17T16:19:12.864Z,12.80
2023-05-17T16:21:40.339Z,12.90
2023-05-17T16:24:07.641Z,13.00
2023-05-17T16:26:36.009Z,13.10
2023-05-17T16:29:03.085Z,13.10
2023-05-17T16:31:29.996Z,13.10
2023-05-17T16:33:56.925Z,13.10
2023-05-17T16:36:24.526Z,13.20
2023-05-17T16:38:51.838Z,13.10
2023-05-17T16:41:18.832Z,13.10
2023-05-17T16:43:46.036Z,13.10
2023-05-17T16:46:12.848Z,13.00
2023-05-17T16:48:41.158Z,12.90
2023-05-17T16:51:08.038Z,12.90
2023-05-17T16:53:34.865Z,12.80
2023-05-17T16:56:01.759Z,12.80
2023-05-17T16:58:28.771Z,12.80
2023-05-17T17:00:55.852Z,12.60
2023-05-17T17:03:22.780Z,12.40
2023-05-17T17:05:49.741Z,12.10
2023-05-17T17:08:16.689Z,11.90
2023-05-17T17:10:43.640Z,11.80
2023-05-17T17:13:10.577Z,11.70
2023-05-17T17:15:37.518Z,11.80
2023-05-17T17:18:04.479Z,11.60
2023-05-17T17:20:31.677Z,11.60
2023-05-17T17:22:58.824Z,11.60
2023-05-17T17:25:25.861Z,11.60
2023-05-17T17:27:53.293Z,11.60
2023-05-17T17:30:20.338Z,11.60
2023-05-17T17:32:47.565Z,11.50
2023-05-17T17:35:14.704Z,11.40
2023-05-17T17:37:41.556Z,11.40
2023-05-17T17:40:09.200Z,11.30
2023-05-17T17:42:36.145Z,11.30
2023-05-17T17:45:03.429Z,11.20
2023-05-17T17:47:30.469Z,11.20
2023-05-17T17:49:57.492Z,11.10
2023-05-17T17:52:24.420Z,11.10
2023-05-17T17:54:51.513Z,11.10
2023-05-17T17:57:19.496Z,11.10
2023-05-17T17:59:46.490Z,11.00
2023-05-17T18:02:13.663Z,11.00
2023-05-17T18:04:41.199Z,10.90
2023-05-17T18:07:08.388Z,10.90
2023-05-17T18:09:35.627Z,10.90
2023-05-17T18:12:03.177Z,10.90
2023-05-17T18:14:30.100Z,10.80
2023-05-17T18:16:57.131Z,10.70
2023-05-17T18:19:24.236Z,10.70
2023-05-17T18:21:51.469Z,10.50
2023-05-17T18:24:18.390Z,10.50
2023-05-17T18:26:45.511Z,10.50
2023-05-17T18:29:12.939Z,10.30
2023-05-17T18:31:40.057Z,10.20
2023-05-17T18:34:06.943Z,10.20
2023-05-17T18:36:34.325Z,10.30
2023-05-17T18:39:01.453Z,10.10
2023-05-17T18:41:28.360Z,10.00
2023-05-17T18:43:55.992Z,9.90
2023-05-17T18:46:22.976Z,9.90
2023-05-17T18:48:49.945Z,9.80
2023-05-17T18:51:16.898Z,9.70
2023-05-17T18:53:44.383Z,9.50
2023-05-17T18:56:12.558Z,9.50
2023-05-17T18:58:39.446Z,9.50
2023-05-17T19:01:08.762Z,9.40
2023-05-17T19:03:35.952Z,9.30
2023-05-17T19:06:03.552Z,9.30
2023-05-17T19:08:30.569Z,9.20
2023-05-17T19:10:57.926Z,9.10
2023-05-17T19:13:27.305Z,9.00
2023-05-17T19:15:54.807Z,9.00
2023-05-17T19:18:22.127Z,8.90
2023-05-17T19:20:49.739Z,8.90
2023-05-17T19:23:17.123Z,8.80
2023-05-17T19:25:44.101Z,8.80
2023-05-17T19:28:11.452Z,8.70
2023-05-17T19:30:38.520Z,8.70
2023-05-17T19:33:05.656Z,8.60
2023-05-17T19:35:32.748Z,8.50
2023-05-17T19:37:59.698Z,8.40
2023-05-17T19:40:26.781Z,8.40
2023-05-17T19:42:53.741Z,8.30
2023-05-17T19:45:20.820Z,8.30
2023-05-17T19:47:47.846Z,8.20
2023-05-17T19:50:15.252Z,8.20
2023-05-17T19:52:42.666Z,8.10
2023-05-17T19:55:09.886Z,8.00
2023-05-17T19:57:37.036Z,8.00
2023-05-17T20:00:05.407Z,7.90
2023-05-17T20:02:32.361Z,7.90
2023-05-17T20:05:02.481Z,8.00
2023-05-17T20:07:30.837Z,7.80
2023-05-17T20:09:58.312Z,7.80
2023-05-17T20:12:26.421Z,7.80
2023-05-17T20:14:54.013Z,7.70
2023-05-17T20:17:21.421Z,7.60
2023-05-17T20:19:48.732Z,7.60
2023-05-17T20:22:16.160Z,7.50
2023-05-17T20:24:44.727Z,7.50
2023-05-17T20:27:13.124Z,7.50
2023-05-17T20:29:41.188Z,7.40
2023-05-17T20:32:08.955Z,7.40
2023-05-17T20:34:36.272Z,7.40
2023-05-17T20:37:03.184Z,7.30
2023-05-17T20:39:31.038Z,7.30
2023-05-17T20:41:58.655Z,7.30
2023-05-17T20:44:26.109Z,7.30
2023-05-17T20:46:56.703Z,7.20
2023-05-17T20:49:23.718Z,7.20
2023-05-17T20:51:50.753Z,7.00
2023-05-17T20:54:18.088Z,7.10
2023-05-17T20:56:44.979Z,7.10
2023-05-17T20:59:12.542Z,7.00
2023-05-17T21:01:39.832Z,7.00
2023-05-17T21:04:06.920Z,6.90
2023-05-17T21:06:34.485Z,6.90
2023-05-17T21:09:02.635Z,6.90
2023-05-17T21:11:30.069Z,6.90
2023-05-17T21:13:59.980Z,6.90
2023-05-17T21:16:27.161Z,6.90
2023-05-17T21:18:54.040Z,6.80
2023-05-17T21:21:21.311Z,6.70
2023-05-17T21:23:48.670Z,6.70
2023-05-17T21:26:15.887Z,6.70
2023-05-17T21:28:42.984Z,6.60
2023-05-17T21:31:11.598Z,6.60
2023-05-17T21:33:38.643Z,6.60
2023-05-17T21:36:05.853Z,6.60
2023-05-17T21:38:32.965Z,6.60
2023-05-17T21:41:00.012Z,6.50
2023-05-17T21:43:27.114Z,6.50
2023-05-17T21:45:54.013Z,6.40
2023-05-17T21:48:21.116Z,6.30
2023-05-17T21:50:49.811Z,6.30
2023-05-17T21:53:16.693Z,6.20
2023-05-17T21:55:56.875Z,6.10
2023-05-17T21:58:28.919Z,6.10
2023-05-17T22:00:56.212Z,6.00
2023-05-17T22:03:23.185Z,5.80
2023-05-17T22:05:52.404Z,5.90
2023-05-17T22:08:19.223Z,5.80
2023-05-17T22:10:46.968Z,5.80
2023-05-17T22:13:15.921Z,5.80
2023-05-17T22:15:42.873Z,5.70
2023-05-17T22:18:12.376Z,5.70
2023-05-17T22:20:39.551Z,5.70
2023-05-17T22:23:06.439Z,5.60
2023-05-17T22:25:33.631Z,5.60
2023-05-17T22:28:00.559Z,5.50
2023-05-17T22:30:27.383Z,5.50
2023-05-17T22:32:57.213Z,5.50
2023-05-17T22:35:24.696Z,5.40
2023-05-17T22:37:51.899Z,5.40
2023-05-17T22:40:18.961Z,5.40
2023-05-17T22:42:46.137Z,5.30
2023-05-17T22:45:14.432Z,5.30
2023-05-17T22:47:46.863Z,5.30
2023-05-17T22:50:15.689Z,5.20
2023-05-17T22:52:43.107Z,5.20
2023-05-17T22:55:11.002Z,5.10
2023-05-17T22:57:38.297Z,5.00
2023-05-17T23:00:11.651Z,5.00
2023-05-17T23:02:38.758Z,5.00
2023-05-17T23:05:06.086Z,5.00
2023-05-17T23:07:37.033Z,4.90
2023-05-17T23:10:09.258Z,4.90
2023-05-17T23:12:40.006Z,4.80
2023-05-17T23:15:07.931Z,4.80
2023-05-17T23:17:35.677Z,4.80
2023-05-17T23:20:12.991Z,4.80
2023-05-17T23:22:40.229Z,4.70
2023-05-17T23:25:07.370Z,4.70
2023-05-17T23:27:38.062Z,4.60
2023-05-17T23:30:05.777Z,4.60
2023-05-17T23:32:32.749Z,4.60
2023-05-17T23:35:06.363Z,4.50
2023-05-17T23:37:33.943Z,4.50
2023-05-17T23:40:01.556Z,4.50
2023-05-17T23:42:31.834Z,4.50
2023-05-17T23:44:59.262Z,4.40
2023-05-17T23:47:28.179Z,4.40
2023-05-17T23:49:56.057Z,4.40
2023-05-17T23:52:23.821Z,4.40
2023-05-17T23:54:51.265Z,4.40
2023-05-17T23:57:18.163Z,4.40
2023-05-17T23:59:45.081Z,4.30
